Time;durP1;ratioP1;P1;durP2;ratioP2;P2;SDS_P1;SDS_P2;PMS_P1;PMS_P2;Temp;Humidity;BMP_temperature;BMP_pressure;BME280_temperature;BME280_humidity;BME280_pressure;Samples;Min_cycle;Max_cycle;Signal;HPM_P1;HPM_P2
2020/12/04 00:02:27;;;;;;;35.70;19.08;;;;;;;;;;6231584;28;20095;-69
2020/12/04 00:05:28;;;;;;;34.50;19.95;;;;;;;;;;6234308;28;20132;-69
2020/12/04 00:08:29;;;;;;;35.75;18.63;;;;;;;;;;6227956;28;20042;-69
2020/12/04 00:11:34;;;;;;;32.97;19.10;;;;;;;;;;6234085;28;20441;-69
2020/12/04 00:14:35;;;;;;;32.92;18.95;;;;;;;;;;6235976;28;20075;-69
2020/12/04 00:17:36;;;;;;;29.48;17.92;;;;;;;;;;6243554;28;20057;-69
2020/12/04 00:20:37;;;;;;;214.68;105.05;;;;;;;;;;6235257;28;20095;-68
2020/12/04 00:23:39;;;;;;;207.52;86.22;;;;;;;;;;6239487;28;20100;-69
2020/12/04 00:26:40;;;;;;;67.45;33.90;;;;;;;;;;6236733;28;20168;-68
2020/12/04 00:29:41;;;;;;;67.13;32.83;;;;;;;;;;6218345;28;20571;-68
2020/12/04 00:32:43;;;;;;;135.40;60.92;;;;;;;;;;6221526;28;20524;-68
2020/12/04 00:35:44;;;;;;;68.53;32.92;;;;;;;;;;6245688;28;20054;-68
2020/12/04 00:38:45;;;;;;;25.58;16.67;;;;;;;;;;6208073;28;20137;-69
2020/12/04 00:41:46;;;;;;;26.73;15.82;;;;;;;;;;6229874;28;20115;-69
2020/12/04 00:44:47;;;;;;;24.02;15.27;;;;;;;;;;6240656;28;20042;-69
2020/12/04 00:47:49;;;;;;;26.02;15.20;;;;;;;;;;6246871;28;20198;-70
2020/12/04 00:50:50;;;;;;;25.55;15.38;;;;;;;;;;6237008;28;20056;-69
2020/12/04 00:53:51;;;;;;;21.67;14.07;;;;;;;;;;6232485;28;20136;-69
2020/12/04 00:56:52;;;;;;;22.13;14.52;;;;;;;;;;6247660;28;20504;-69
2020/12/04 00:59:54;;;;;;;22.48;15.20;;;;;;;;;;6243167;28;20140;-69
2020/12/04 01:02:55;;;;;;;23.85;15.07;;;;;;;;;;6234121;28;20065;-69
2020/12/04 01:05:56;;;;;;;24.33;14.75;;;;;;;;;;6224325;28;20184;-69
2020/12/04 01:08:58;;;;;;;22.92;13.90;;;;;;;;;;6211836;28;20046;-69
2020/12/04 01:11:59;;;;;;;22.55;14.63;;;;;;;;;;6217373;28;20045;-69
2020/12/04 01:15:00;;;;;;;23.92;14.13;;;;;;;;;;6215593;28;20077;-70
2020/12/04 01:18:02;;;;;;;25.38;15.75;;;;;;;;;;6231550;28;20167;-70
2020/12/04 01:21:04;;;;;;;21.77;13.82;;;;;;;;;;6226819;28;20159;-70
2020/12/04 01:24:05;;;;;;;21.73;14.50;;;;;;;;;;6208124;28;20132;-71
2020/12/04 01:27:06;;;;;;;21.80;13.85;;;;;;;;;;6212817;28;20139;-72
2020/12/04 01:30:07;;;;;;;24.10;15.35;;;;;;;;;;6210376;28;20087;-72
2020/12/04 01:33:09;;;;;;;22.75;14.55;;;;;;;;;;6212396;28;20393;-72
2020/12/04 01:36:13;;;;;;;22.85;14.88;;;;;;;;;;6228996;28;20507;-70
2020/12/04 01:39:14;;;;;;;29.48;17.58;;;;;;;;;;6237156;28;20053;-70
2020/12/04 01:42:15;;;;;;;30.08;17.90;;;;;;;;;;6238977;28;20840;-70
2020/12/04 01:45:17;;;;;;;29.73;17.02;;;;;;;;;;6240176;28;20037;-71
2020/12/04 01:48:19;;;;;;;33.70;18.17;;;;;;;;;;6237570;28;20054;-70
2020/12/04 01:51:21;;;;;;;34.22;18.55;;;;;;;;;;6236844;28;20046;-70
2020/12/04 01:54:22;;;;;;;39.17;19.63;;;;;;;;;;6239397;28;20053;-70
2020/12/04 01:57:25;;;;;;;36.03;18.95;;;;;;;;;;6235709;28;20045;-69
2020/12/04 02:00:26;;;;;;;37.70;19.85;;;;;;;;;;6234176;28;20057;-71
2020/12/04 02:03:28;;;;;;;37.17;18.48;;;;;;;;;;6237695;28;20455;-71
2020/12/04 02:06:35;;;;;;;41.33;20.35;;;;;;;;;;6235479;28;20122;-69
2020/12/04 02:09:41;;;;;;;37.28;20.38;;;;;;;;;;6237721;28;20053;-68
2020/12/04 02:12:42;;;;;;;37.40;21.17;;;;;;;;;;6237251;28;20094;-70
2020/12/04 02:15:45;;;;;;;35.65;19.48;;;;;;;;;;6233175;28;20524;-69
2020/12/04 02:18:47;;;;;;;38.67;21.85;;;;;;;;;;6230784;28;20046;-70
2020/12/04 02:21:49;;;;;;;35.75;21.00;;;;;;;;;;6229581;28;20083;-70
2020/12/04 02:24:52;;;;;;;37.95;21.77;;;;;;;;;;6241326;28;20125;-70
2020/12/04 02:27:53;;;;;;;35.40;20.50;;;;;;;;;;6240084;28;20136;-70
2020/12/04 02:30:54;;;;;;;34.90;20.48;;;;;;;;;;6215883;28;20045;-70
2020/12/04 02:33:55;;;;;;;33.28;19.17;;;;;;;;;;6213685;28;20188;-71
2020/12/04 02:36:57;;;;;;;36.95;20.23;;;;;;;;;;6214372;28;20073;-70
2020/12/04 02:39:58;;;;;;;33.28;19.65;;;;;;;;;;6213260;28;20042;-70
2020/12/04 02:43:00;;;;;;;40.00;21.00;;;;;;;;;;6220385;28;20046;-70
2020/12/04 02:46:01;;;;;;;36.63;20.05;;;;;;;;;;6226152;28;20075;-70
2020/12/04 02:49:02;;;;;;;37.45;20.55;;;;;;;;;;6225090;28;20068;-70
2020/12/04 02:52:04;;;;;;;37.63;20.77;;;;;;;;;;6234260;28;20128;-71
2020/12/04 02:55:05;;;;;;;42.03;21.08;;;;;;;;;;6240858;28;20172;-69
2020/12/04 02:58:06;;;;;;;42.47;21.10;;;;;;;;;;6212220;28;20046;-70
2020/12/04 03:01:07;;;;;;;39.88;21.98;;;;;;;;;;6221463;28;20030;-70
2020/12/04 03:04:08;;;;;;;39.30;21.02;;;;;;;;;;6237090;28;20149;-70
2020/12/04 03:07:10;;;;;;;40.38;20.80;;;;;;;;;;6233171;28;20053;-69
2020/12/04 03:10:11;;;;;;;40.47;21.45;;;;;;;;;;6232591;28;20143;-71
2020/12/04 03:13:12;;;;;;;41.88;20.83;;;;;;;;;;6227094;28;20547;-71
2020/12/04 03:16:14;;;;;;;43.83;22.30;;;;;;;;;;6210170;28;20054;-71
2020/12/04 03:19:15;;;;;;;45.53;23.15;;;;;;;;;;6223809;28;20084;-69
2020/12/04 03:22:16;;;;;;;43.00;22.20;;;;;;;;;;6214431;28;20192;-69
2020/12/04 03:25:17;;;;;;;45.65;22.20;;;;;;;;;;6217759;28;20172;-70
2020/12/04 03:28:18;;;;;;;43.08;22.42;;;;;;;;;;6213824;28;20193;-69
2020/12/04 03:31:20;;;;;;;41.88;21.40;;;;;;;;;;6214071;28;20172;-69
2020/12/04 03:34:21;;;;;;;45.00;21.58;;;;;;;;;;6213090;28;20608;-69
2020/12/04 03:37:22;;;;;;;44.03;21.52;;;;;;;;;;6213810;28;20083;-69
2020/12/04 03:40:23;;;;;;;41.83;21.70;;;;;;;;;;6235381;28;20113;-68
2020/12/04 03:43:24;;;;;;;38.08;20.42;;;;;;;;;;6240883;28;20140;-69
2020/12/04 03:46:25;;;;;;;33.65;18.48;;;;;;;;;;6244144;28;20096;-69
2020/12/04 03:49:27;;;;;;;35.33;19.05;;;;;;;;;;6243136;28;20139;-69
2020/12/04 03:52:28;;;;;;;38.42;18.88;;;;;;;;;;6234689;28;20584;-70
2020/12/04 03:55:29;;;;;;;35.42;19.38;;;;;;;;;;6227200;28;20122;-70
2020/12/04 03:58:30;;;;;;;36.80;19.70;;;;;;;;;;6221705;28;20144;-71
2020/12/04 04:01:32;;;;;;;40.60;20.10;;;;;;;;;;6240664;28;20137;-71
2020/12/04 04:04:33;;;;;;;33.53;18.17;;;;;;;;;;6239429;28;20050;-69
2020/12/04 04:07:34;;;;;;;35.25;18.55;;;;;;;;;;6229378;28;20137;-70
2020/12/04 04:10:36;;;;;;;36.40;18.25;;;;;;;;;;6219750;28;20136;-70
2020/12/04 04:13:37;;;;;;;34.00;17.70;;;;;;;;;;6215066;28;20174;-69
2020/12/04 04:16:38;;;;;;;32.55;18.25;;;;;;;;;;6236907;28;20050;-69
2020/12/04 04:19:39;;;;;;;36.40;18.27;;;;;;;;;;6236377;28;20042;-69
2020/12/04 04:22:41;;;;;;;35.22;18.20;;;;;;;;;;6207380;28;20116;-69
2020/12/04 04:25:42;;;;;;;38.00;18.00;;;;;;;;;;6210841;28;20072;-69
2020/12/04 04:28:43;;;;;;;35.83;19.08;;;;;;;;;;6223636;28;20110;-70
2020/12/04 04:31:44;;;;;;;37.13;19.23;;;;;;;;;;6236624;28;20094;-69
2020/12/04 04:34:45;;;;;;;38.53;20.75;;;;;;;;;;6228187;28;20038;-69
2020/12/04 04:37:47;;;;;;;37.30;20.52;;;;;;;;;;6206426;28;20042;-70
2020/12/04 04:40:54;;;;;;;38.00;19.13;;;;;;;;;;6231216;28;21472;-70
2020/12/04 04:43:55;;;;;;;38.78;19.67;;;;;;;;;;6221961;28;20046;-70
2020/12/04 04:47:03;;;;;;;39.70;19.40;;;;;;;;;;6213447;28;20185;-70
2020/12/04 04:50:04;;;;;;;36.97;20.48;;;;;;;;;;6212842;28;20069;-69
2020/12/04 04:53:06;;;;;;;37.97;18.13;;;;;;;;;;6212125;28;20087;-70
2020/12/04 04:56:07;;;;;;;40.17;20.13;;;;;;;;;;6212024;28;20050;-71
2020/12/04 04:59:08;;;;;;;41.55;19.13;;;;;;;;;;6214813;28;20046;-70
2020/12/04 05:02:11;;;;;;;33.60;17.63;;;;;;;;;;6230402;28;20051;-70
2020/12/04 05:05:12;;;;;;;35.28;16.85;;;;;;;;;;6234906;28;20045;-70
2020/12/04 05:08:15;;;;;;;35.15;17.58;;;;;;;;;;6218342;28;20141;-70
2020/12/04 05:11:16;;;;;;;36.58;18.35;;;;;;;;;;6226140;28;20046;-70
2020/12/04 05:14:22;;;;;;;35.92;17.83;;;;;;;;;;6214274;28;20082;-69
2020/12/04 05:17:23;;;;;;;35.45;18.05;;;;;;;;;;6238859;28;20049;-69
2020/12/04 05:20:24;;;;;;;35.35;17.50;;;;;;;;;;6237642;28;20058;-69
2020/12/04 05:23:28;;;;;;;41.17;18.98;;;;;;;;;;6218686;28;20577;-69
2020/12/04 05:26:30;;;;;;;37.50;18.73;;;;;;;;;;6221877;28;20048;-70
2020/12/04 05:29:38;;;;;;;38.08;19.35;;;;;;;;;;6231969;28;20136;-69
2020/12/04 05:32:39;;;;;;;37.47;18.70;;;;;;;;;;6204864;28;20091;-70
2020/12/04 05:35:40;;;;;;;37.47;18.92;;;;;;;;;;6220347;28;20389;-71
2020/12/04 05:38:51;;;;;;;41.10;20.25;;;;;;;;;;6210774;28;20046;-70
2020/12/04 05:41:52;;;;;;;35.85;18.15;;;;;;;;;;6209159;28;20046;-70
2020/12/04 05:44:54;;;;;;;39.22;18.92;;;;;;;;;;6234434;28;20053;-69
2020/12/04 05:47:55;;;;;;;33.97;16.65;;;;;;;;;;6222484;28;20057;-69
2020/12/04 05:50:56;;;;;;;41.28;18.13;;;;;;;;;;6235119;28;20651;-70
2020/12/04 05:53:58;;;;;;;40.15;17.83;;;;;;;;;;6229385;28;20135;-70
2020/12/04 05:57:02;;;;;;;43.00;19.50;;;;;;;;;;6211229;28;20602;-71
2020/12/04 06:00:03;;;;;;;46.72;20.67;;;;;;;;;;6220707;28;20116;-70
2020/12/04 06:03:05;;;;;;;48.70;20.90;;;;;;;;;;6228958;28;20140;-70
2020/12/04 06:06:08;;;;;;;54.78;20.70;;;;;;;;;;6235233;28;20060;-71
2020/12/04 06:09:10;;;;;;;55.95;21.20;;;;;;;;;;6216481;28;20585;-71
2020/12/04 06:12:13;;;;;;;64.90;25.00;;;;;;;;;;6237783;28;20191;-70
2020/12/04 06:15:20;;;;;;;64.22;23.50;;;;;;;;;;6210254;28;20053;-69
2020/12/04 06:18:29;;;;;;;56.55;21.05;;;;;;;;;;6225834;28;20130;-71
2020/12/04 06:21:43;;;;;;;62.15;22.05;;;;;;;;;;6239434;28;20051;-70
2020/12/04 06:25:04;;;;;;;69.15;24.90;;;;;;;;;;6231126;28;20133;-70
2020/12/04 06:28:15;;;;;;;64.75;24.05;;;;;;;;;;6235583;28;20128;-70
2020/12/04 06:31:16;;;;;;;68.28;25.33;;;;;;;;;;6234988;28;20550;-70
2020/12/04 06:34:19;;;;;;;76.30;27.23;;;;;;;;;;6228781;28;20091;-72
2020/12/04 06:37:34;;;;;;;71.07;24.92;;;;;;;;;;6236676;28;20061;-70
2020/12/04 06:40:35;;;;;;;74.72;24.08;;;;;;;;;;6237826;28;20057;-69
2020/12/04 06:43:37;;;;;;;72.05;25.92;;;;;;;;;;6240518;28;20053;-71
2020/12/04 06:46:43;;;;;;;63.28;23.83;;;;;;;;;;6232274;28;20073;-70
2020/12/04 06:49:44;;;;;;;75.75;25.88;;;;;;;;;;6239776;28;20060;-71
2020/12/04 06:52:45;;;;;;;73.55;25.40;;;;;;;;;;6236115;28;20451;-69
2020/12/04 06:55:48;;;;;;;81.40;26.02;;;;;;;;;;6236862;28;20071;-68
2020/12/04 06:58:50;;;;;;;84.45;29.05;;;;;;;;;;6217245;28;20128;-69
2020/12/04 07:01:51;;;;;;;91.43;28.95;;;;;;;;;;6228893;28;20080;-69
2020/12/04 07:04:54;;;;;;;90.07;30.52;;;;;;;;;;6238191;28;20041;-68
2020/12/04 07:08:02;;;;;;;90.82;31.05;;;;;;;;;;6238073;28;20227;-68
2020/12/04 07:11:04;;;;;;;102.22;32.75;;;;;;;;;;6235832;28;21040;-69
2020/12/04 07:14:05;;;;;;;90.30;30.17;;;;;;;;;;6236052;28;20049;-71
2020/12/04 07:17:07;;;;;;;97.93;31.35;;;;;;;;;;6229412;28;20038;-70
2020/12/04 07:20:08;;;;;;;82.35;30.27;;;;;;;;;;6228840;28;20581;-69
2020/12/04 07:23:09;;;;;;;79.03;29.40;;;;;;;;;;6237590;28;20045;-70
2020/12/04 07:26:16;;;;;;;80.63;29.90;;;;;;;;;;6238342;28;20120;-68
2020/12/04 07:29:18;;;;;;;74.25;30.02;;;;;;;;;;6240240;28;20152;-69
2020/12/04 07:32:20;;;;;;;66.50;27.15;;;;;;;;;;6235519;28;20065;-71
2020/12/04 07:35:23;;;;;;;75.28;29.45;;;;;;;;;;6239636;28;20184;-69
2020/12/04 07:38:24;;;;;;;68.10;27.88;;;;;;;;;;6234031;28;20136;-69
2020/12/04 07:41:36;;;;;;;63.35;26.33;;;;;;;;;;6234756;28;20053;-73
2020/12/04 07:44:39;;;;;;;68.10;26.58;;;;;;;;;;6236136;28;20045;-70
2020/12/04 07:47:42;;;;;;;62.72;25.55;;;;;;;;;;6233785;28;20164;-70
2020/12/04 07:50:43;;;;;;;60.30;24.88;;;;;;;;;;6235886;28;20397;-68
2020/12/04 07:53:44;;;;;;;55.25;24.23;;;;;;;;;;6238083;28;20132;-71
2020/12/04 07:56:50;;;;;;;61.20;23.95;;;;;;;;;;6219802;28;20596;-69
2020/12/04 07:59:53;;;;;;;65.13;22.67;;;;;;;;;;6211298;28;20053;-69
2020/12/04 08:02:54;;;;;;;65.75;26.98;;;;;;;;;;6214614;28;20058;-71
2020/12/04 08:05:55;;;;;;;63.70;24.67;;;;;;;;;;6213887;28;20081;-71
2020/12/04 08:09:07;;;;;;;64.78;26.67;;;;;;;;;;6213351;28;20046;-71
2020/12/04 08:12:15;;;;;;;63.67;23.45;;;;;;;;;;6226831;28;20045;-69
2020/12/04 08:15:18;;;;;;;67.80;25.10;;;;;;;;;;6239094;28;20041;-69
2020/12/04 08:18:19;;;;;;;67.55;25.63;;;;;;;;;;6235454;28;20060;-70
2020/12/04 08:21:20;;;;;;;66.90;24.50;;;;;;;;;;6234498;28;20132;-70
2020/12/04 08:24:23;;;;;;;68.65;26.00;;;;;;;;;;6238189;28;20045;-70
2020/12/04 08:27:25;;;;;;;71.65;26.40;;;;;;;;;;6239828;28;20123;-70
2020/12/04 08:30:27;;;;;;;77.90;26.60;;;;;;;;;;6239535;28;20144;-70
2020/12/04 08:33:28;;;;;;;75.75;27.00;;;;;;;;;;6236186;28;20044;-69
2020/12/04 08:36:29;;;;;;;75.88;28.42;;;;;;;;;;6240862;28;20075;-70
2020/12/04 08:39:54;;;;;;;71.05;27.67;;;;;;;;;;6240941;28;20209;-70
2020/12/04 08:43:08;;;;;;;79.80;28.52;;;;;;;;;;6220847;28;20046;-72
2020/12/04 08:46:11;;;;;;;91.53;32.03;;;;;;;;;;6236138;28;20095;-72
2020/12/04 08:49:12;;;;;;;83.47;31.63;;;;;;;;;;6239318;28;20459;-71
2020/12/04 08:52:13;;;;;;;89.47;32.60;;;;;;;;;;6241922;28;20053;-73
2020/12/04 08:55:16;;;;;;;80.43;32.35;;;;;;;;;;6238627;28;20041;-74
2020/12/04 08:58:19;;;;;;;88.53;32.55;;;;;;;;;;6239032;28;20045;-74
2020/12/04 09:01:20;;;;;;;90.45;33.65;;;;;;;;;;6234605;28;20049;-72
2020/12/04 09:04:21;;;;;;;81.55;30.48;;;;;;;;;;6238688;28;20512;-72
2020/12/04 09:07:23;;;;;;;82.25;32.25;;;;;;;;;;6241158;28;20175;-71
2020/12/04 09:10:24;;;;;;;80.82;31.50;;;;;;;;;;6235818;28;20409;-70
2020/12/04 09:13:26;;;;;;;76.82;33.22;;;;;;;;;;6213112;28;20047;-73
2020/12/04 09:16:27;;;;;;;79.40;31.10;;;;;;;;;;6214547;28;20109;-70
2020/12/04 09:19:28;;;;;;;85.18;33.17;;;;;;;;;;6221014;28;20540;-72
2020/12/04 09:22:30;;;;;;;83.75;34.65;;;;;;;;;;6212855;28;21096;-71
2020/12/04 09:25:32;;;;;;;79.07;33.33;;;;;;;;;;6226480;28;20037;-71
2020/12/04 09:28:34;;;;;;;70.85;30.85;;;;;;;;;;6238813;28;20176;-70
2020/12/04 09:31:35;;;;;;;81.38;37.88;;;;;;;;;;6240878;28;20140;-72
2020/12/04 09:34:36;;;;;;;81.10;36.55;;;;;;;;;;6230945;28;20053;-71
2020/12/04 09:37:38;;;;;;;75.18;35.33;;;;;;;;;;6226671;28;21736;-70
2020/12/04 09:40:39;;;;;;;78.10;36.13;;;;;;;;;;6220940;28;20779;-71
2020/12/04 09:43:41;;;;;;;77.57;34.67;;;;;;;;;;6217943;28;20054;-70
2020/12/04 09:46:42;;;;;;;75.97;36.28;;;;;;;;;;6209048;28;20204;-74
2020/12/04 09:49:43;;;;;;;67.18;33.55;;;;;;;;;;6216481;28;20076;-72
2020/12/04 09:52:45;;;;;;;64.43;32.63;;;;;;;;;;6215744;28;20061;-74
2020/12/04 09:55:46;;;;;;;67.90;34.05;;;;;;;;;;6213788;28;20426;-73
2020/12/04 09:58:48;;;;;;;70.72;33.55;;;;;;;;;;6214506;28;20557;-75
2020/12/04 10:01:49;;;;;;;65.05;33.53;;;;;;;;;;6213630;28;20140;-72
2020/12/04 10:04:50;;;;;;;68.72;33.75;;;;;;;;;;6214978;28;20767;-71
2020/12/04 10:07:51;;;;;;;73.68;36.08;;;;;;;;;;6214943;28;20049;-72
2020/12/04 10:10:52;;;;;;;73.10;34.95;;;;;;;;;;6213044;28;20042;-72
2020/12/04 10:13:54;;;;;;;68.07;32.45;;;;;;;;;;6212251;28;21253;-72
2020/12/04 10:16:55;;;;;;;70.82;33.38;;;;;;;;;;6238477;28;20090;-72
2020/12/04 10:19:57;;;;;;;65.88;33.88;;;;;;;;;;6237084;28;20568;-73
2020/12/04 10:22:58;;;;;;;70.80;33.58;;;;;;;;;;6232613;28;20053;-74
2020/12/04 10:25:59;;;;;;;71.97;35.05;;;;;;;;;;6239771;28;20127;-72
2020/12/04 10:29:02;;;;;;;70.28;34.28;;;;;;;;;;6238123;28;20045;-72
2020/12/04 10:32:03;;;;;;;73.78;34.75;;;;;;;;;;6236668;28;20092;-72
2020/12/04 10:35:04;;;;;;;78.47;35.88;;;;;;;;;;6234347;28;20194;-72
2020/12/04 10:38:05;;;;;;;69.57;36.28;;;;;;;;;;6234811;28;20049;-72
2020/12/04 10:41:06;;;;;;;77.38;35.03;;;;;;;;;;6235375;28;20786;-74
2020/12/04 10:44:09;;;;;;;79.55;37.63;;;;;;;;;;6235595;28;20041;-72
2020/12/04 10:47:10;;;;;;;76.72;36.65;;;;;;;;;;6203230;28;20602;-72
2020/12/04 10:50:11;;;;;;;73.03;37.42;;;;;;;;;;6235461;28;20132;-73
2020/12/04 10:53:12;;;;;;;75.70;38.50;;;;;;;;;;6219600;28;20493;-74
2020/12/04 10:56:13;;;;;;;75.00;35.40;;;;;;;;;;6231312;28;20404;-72
2020/12/04 10:59:15;;;;;;;75.13;36.67;;;;;;;;;;6236182;28;20151;-72
2020/12/04 11:02:24;;;;;;;79.60;39.38;;;;;;;;;;6237195;28;20041;-72
2020/12/04 11:05:36;;;;;;;66.15;35.10;;;;;;;;;;6239591;28;20049;-73
2020/12/04 11:08:37;;;;;;;75.70;35.72;;;;;;;;;;6239134;28;20045;-73
2020/12/04 11:11:38;;;;;;;75.60;36.88;;;;;;;;;;6222573;28;20442;-74
2020/12/04 11:14:43;;;;;;;78.78;38.55;;;;;;;;;;6232767;28;20076;-74
2020/12/04 11:17:44;;;;;;;71.95;37.88;;;;;;;;;;6234260;28;20065;-73
2020/12/04 11:20:45;;;;;;;72.13;37.45;;;;;;;;;;6236070;28;20095;-74
2020/12/04 11:23:46;;;;;;;70.88;37.40;;;;;;;;;;6209512;28;20200;-73
2020/12/04 11:26:47;;;;;;;75.43;37.08;;;;;;;;;;6214690;28;20050;-73
2020/12/04 11:29:49;;;;;;;69.05;35.67;;;;;;;;;;6227209;28;20519;-73
2020/12/04 11:32:51;;;;;;;66.68;34.70;;;;;;;;;;6238930;28;20120;-74
2020/12/04 11:35:52;;;;;;;65.82;34.35;;;;;;;;;;6241051;28;20095;-74
2020/12/04 11:38:53;;;;;;;67.80;35.13;;;;;;;;;;6218548;28;20156;-74
2020/12/04 11:41:54;;;;;;;65.50;33.03;;;;;;;;;;6214542;28;20128;-76
2020/12/04 11:44:56;;;;;;;58.10;31.88;;;;;;;;;;6240068;28;20045;-74
2020/12/04 11:47:57;;;;;;;63.58;32.00;;;;;;;;;;6221390;28;20123;-74
2020/12/04 11:50:58;;;;;;;63.08;32.83;;;;;;;;;;6233750;28;20124;-74
2020/12/04 11:53:59;;;;;;;62.83;32.80;;;;;;;;;;6235021;28;20045;-74
2020/12/04 11:57:00;;;;;;;60.60;31.30;;;;;;;;;;6213388;28;20065;-72
2020/12/04 12:00:05;;;;;;;58.05;30.80;;;;;;;;;;6211581;28;20053;-74
2020/12/04 12:03:06;;;;;;;56.92;28.73;;;;;;;;;;6202354;28;20128;-75
2020/12/04 12:06:07;;;;;;;64.13;31.40;;;;;;;;;;6212190;28;20042;-74
2020/12/04 12:09:09;;;;;;;56.95;29.77;;;;;;;;;;6211650;28;20042;-74
2020/12/04 12:12:10;;;;;;;70.70;34.10;;;;;;;;;;6211927;28;20209;-74
2020/12/04 12:15:11;;;;;;;63.40;30.70;;;;;;;;;;6226945;28;20159;-71
2020/12/04 12:18:12;;;;;;;59.60;30.40;;;;;;;;;;6238559;28;20497;-71
2020/12/04 12:21:14;;;;;;;66.65;34.65;;;;;;;;;;6219833;28;20060;-71
2020/12/04 12:24:15;;;;;;;59.38;30.83;;;;;;;;;;6217978;28;20647;-69
2020/12/04 12:27:16;;;;;;;56.28;29.15;;;;;;;;;;6248117;28;20521;-70
2020/12/04 12:30:18;;;;;;;59.90;30.73;;;;;;;;;;6241254;28;20144;-72
2020/12/04 12:33:19;;;;;;;65.40;32.03;;;;;;;;;;6244167;28;20050;-73
2020/12/04 12:36:20;;;;;;;67.70;34.85;;;;;;;;;;6245166;28;20053;-70
2020/12/04 12:39:21;;;;;;;65.50;34.17;;;;;;;;;;6243007;28;20068;-71
2020/12/04 12:42:23;;;;;;;65.25;32.75;;;;;;;;;;5888952;28;10000625;-71
2020/12/04 12:45:24;;;;;;;67.50;33.55;;;;;;;;;;6233059;28;20164;-72
2020/12/04 12:48:25;;;;;;;68.65;34.05;;;;;;;;;;6233478;28;20045;-71
2020/12/04 12:51:27;;;;;;;65.80;35.78;;;;;;;;;;6234222;28;20049;-71
2020/12/04 12:54:28;;;;;;;59.38;33.53;;;;;;;;;;6242216;28;20156;-72
2020/12/04 12:57:29;;;;;;;61.42;31.17;;;;;;;;;;6237286;28;20136;-72
2020/12/04 13:00:31;;;;;;;68.38;33.47;;;;;;;;;;6239892;28;20611;-72
2020/12/04 13:03:32;;;;;;;66.47;34.22;;;;;;;;;;6241162;28;20109;-71
2020/12/04 13:06:33;;;;;;;61.90;32.60;;;;;;;;;;6237432;28;20061;-72
2020/12/04 13:09:34;;;;;;;63.47;32.45;;;;;;;;;;6238620;28;20145;-71
2020/12/04 13:12:35;;;;;;;60.40;32.45;;;;;;;;;;6244137;28;20144;-72
2020/12/04 13:15:37;;;;;;;57.55;30.63;;;;;;;;;;6239891;28;20053;-71
2020/12/04 13:18:38;;;;;;;62.17;31.15;;;;;;;;;;6233769;28;20128;-73
2020/12/04 13:21:55;;;;;;;65.72;31.15;;;;;;;;;;6225413;28;20049;-72
2020/12/04 13:24:56;;;;;;;62.83;31.73;;;;;;;;;;6222802;28;20103;-72
2020/12/04 13:27:57;;;;;;;64.32;32.58;;;;;;;;;;6218354;28;20054;-72
2020/12/04 13:30:59;;;;;;;70.35;45.65;;;;;;;;;;6238124;28;20128;-72
2020/12/04 13:34:00;;;;;;;64.18;33.00;;;;;;;;;;6237602;28;20500;-72
2020/12/04 13:37:01;;;;;;;68.05;37.70;;;;;;;;;;6218783;28;20532;-72
2020/12/04 13:40:03;;;;;;;70.43;46.40;;;;;;;;;;6210121;28;20166;-72
2020/12/04 13:43:04;;;;;;;57.90;35.72;;;;;;;;;;6222378;28;20062;-72
2020/12/04 13:46:06;;;;;;;58.97;32.42;;;;;;;;;;6240228;28;20069;-72
2020/12/04 13:49:07;;;;;;;54.67;31.98;;;;;;;;;;5889185;28;10000219;-73
2020/12/04 13:52:08;;;;;;;61.97;39.63;;;;;;;;;;6229231;28;20042;-72
2020/12/04 13:55:09;;;;;;;61.08;33.50;;;;;;;;;;6218142;28;20477;-72
2020/12/04 13:58:10;;;;;;;68.85;40.97;;;;;;;;;;6216819;28;20893;-73
2020/12/04 14:01:12;;;;;;;71.68;38.13;;;;;;;;;;6241127;28;20730;-72
2020/12/04 14:04:13;;;;;;;70.65;35.72;;;;;;;;;;6240274;28;20085;-72
2020/12/04 14:07:14;;;;;;;72.82;36.45;;;;;;;;;;6232167;28;20172;-72
2020/12/04 14:10:15;;;;;;;60.42;32.15;;;;;;;;;;6215791;28;20068;-72
2020/12/04 14:13:17;;;;;;;58.35;30.98;;;;;;;;;;6227107;28;20128;-74
2020/12/04 14:16:19;;;;;;;58.75;29.88;;;;;;;;;;6233344;28;20052;-74
2020/12/04 14:19:20;;;;;;;58.35;29.83;;;;;;;;;;6235439;28;20084;-73
2020/12/04 14:22:21;;;;;;;55.83;29.33;;;;;;;;;;6216649;28;20597;-72
2020/12/04 14:25:22;;;;;;;55.97;30.73;;;;;;;;;;6214533;28;20088;-75
2020/12/04 14:28:23;;;;;;;68.40;33.60;;;;;;;;;;6235360;28;20095;-74
2020/12/04 14:31:25;;;;;;;59.35;30.48;;;;;;;;;;6238608;28;20519;-73
2020/12/04 14:34:26;;;;;;;64.00;36.80;;;;;;;;;;6240284;28;20110;-76
2020/12/04 14:37:27;;;;;;;48.63;30.98;;;;;;;;;;6237273;28;20132;-76
2020/12/04 14:40:29;;;;;;;47.17;26.17;;;;;;;;;;6238094;28;20509;-76
2020/12/04 14:43:30;;;;;;;42.60;26.77;;;;;;;;;;6239256;28;20037;-77
2020/12/04 14:46:32;;;;;;;30.85;20.63;;;;;;;;;;6239996;28;20041;-75
2020/12/04 14:49:33;;;;;;;34.90;20.48;;;;;;;;;;6238412;28;20068;-75
2020/12/04 14:52:34;;;;;;;31.23;17.13;;;;;;;;;;6238046;28;20132;-74
2020/12/04 14:55:35;;;;;;;26.20;17.92;;;;;;;;;;6239474;28;20149;-75
2020/12/04 14:58:36;;;;;;;27.42;18.38;;;;;;;;;;6235182;28;20318;-76
2020/12/04 15:01:38;;;;;;;30.60;16.95;;;;;;;;;;6237258;28;20090;-74
2020/12/04 15:04:40;;;;;;;28.08;16.92;;;;;;;;;;6243210;28;20180;-74
2020/12/04 15:07:41;;;;;;;23.42;16.70;;;;;;;;;;6237584;28;20050;-77
2020/12/04 15:10:43;;;;;;;19.30;14.15;;;;;;;;;;6216684;28;20256;-73
2020/12/04 15:13:44;;;;;;;18.83;12.65;;;;;;;;;;6218315;28;20088;-74
2020/12/04 15:16:46;;;;;;;18.60;12.85;;;;;;;;;;6229393;28;20163;-73
2020/12/04 15:19:47;;;;;;;21.20;14.18;;;;;;;;;;6232230;28;20049;-74
2020/12/04 15:22:48;;;;;;;19.52;13.07;;;;;;;;;;6235351;28;20171;-74
2020/12/04 15:25:50;;;;;;;21.05;12.75;;;;;;;;;;6229587;28;20120;-77
2020/12/04 15:28:51;;;;;;;20.83;13.02;;;;;;;;;;6220512;28;20046;-77
2020/12/04 15:31:53;;;;;;;18.42;12.80;;;;;;;;;;6233781;28;20136;-78
2020/12/04 15:34:54;;;;;;;20.27;11.82;;;;;;;;;;6233034;28;20428;-74
2020/12/04 15:37:55;;;;;;;18.83;12.27;;;;;;;;;;6232190;28;20450;-74
2020/12/04 15:40:56;;;;;;;17.88;12.00;;;;;;;;;;6238573;28;20072;-75
2020/12/04 15:43:57;;;;;;;16.63;10.85;;;;;;;;;;6237787;28;20037;-75
2020/12/04 15:46:59;;;;;;;18.05;11.63;;;;;;;;;;6240476;28;20159;-76
2020/12/04 15:50:01;;;;;;;15.23;11.80;;;;;;;;;;6237040;28;20176;-75
2020/12/04 15:53:02;;;;;;;14.55;9.52;;;;;;;;;;6239307;28;20069;-74
2020/12/04 15:56:03;;;;;;;14.30;10.05;;;;;;;;;;6241013;28;20071;-76
2020/12/04 15:59:04;;;;;;;16.25;10.80;;;;;;;;;;6221960;28;20471;-76
2020/12/04 16:02:06;;;;;;;18.98;11.85;;;;;;;;;;6236430;28;20126;-76
2020/12/04 16:05:07;;;;;;;15.38;10.15;;;;;;;;;;6231969;28;20091;-75
2020/12/04 16:08:08;;;;;;;18.27;11.20;;;;;;;;;;6236809;28;20129;-76
2020/12/04 16:11:09;;;;;;;11.73;7.78;;;;;;;;;;6237860;28;20128;-76
2020/12/04 16:14:10;;;;;;;11.75;8.35;;;;;;;;;;6224383;28;20107;-76
2020/12/04 16:17:12;;;;;;;14.68;9.32;;;;;;;;;;6221281;28;20091;-77
2020/12/04 16:20:13;;;;;;;16.30;10.73;;;;;;;;;;6238395;28;20099;-77
2020/12/04 16:23:14;;;;;;;13.93;9.27;;;;;;;;;;6239923;28;20049;-76
2020/12/04 16:26:16;;;;;;;15.05;9.82;;;;;;;;;;6241784;28;20144;-76
2020/12/04 16:29:17;;;;;;;15.77;9.95;;;;;;;;;;6246418;28;20615;-78
2020/12/04 16:32:19;;;;;;;15.50;10.52;;;;;;;;;;6231610;28;20084;-77
2020/12/04 16:35:20;;;;;;;14.32;9.23;;;;;;;;;;6233191;28;20057;-78
2020/12/04 16:38:21;;;;;;;14.02;10.02;;;;;;;;;;6223578;28;20179;-77
2020/12/04 16:41:22;;;;;;;17.25;9.55;;;;;;;;;;6210944;28;20081;-72
2020/12/04 16:44:23;;;;;;;13.95;9.55;;;;;;;;;;6207245;28;20177;-72
2020/12/04 16:47:25;;;;;;;14.32;9.60;;;;;;;;;;6209893;28;20111;-72
2020/12/04 16:50:27;;;;;;;12.35;9.30;;;;;;;;;;6208744;28;20050;-72
2020/12/04 16:53:28;;;;;;;11.90;8.65;;;;;;;;;;6216221;28;20058;-73
2020/12/04 16:56:30;;;;;;;13.90;9.93;;;;;;;;;;6238371;28;20168;-72
2020/12/04 16:59:31;;;;;;;13.52;9.75;;;;;;;;;;6238611;28;20046;-72
2020/12/04 17:02:34;;;;;;;9.88;8.05;;;;;;;;;;6238783;28;20078;-72
2020/12/04 17:05:35;;;;;;;11.20;7.97;;;;;;;;;;6242237;28;20053;-72
2020/12/04 17:08:37;;;;;;;11.40;8.27;;;;;;;;;;6243224;28;20050;-72
2020/12/04 17:11:38;;;;;;;9.73;7.35;;;;;;;;;;6242562;28;20130;-72
2020/12/04 17:14:39;;;;;;;12.32;8.88;;;;;;;;;;6243148;28;20118;-71
2020/12/04 17:17:41;;;;;;;14.13;8.57;;;;;;;;;;6243348;28;20057;-73
2020/12/04 17:20:44;;;;;;;12.02;8.40;;;;;;;;;;6240975;28;20521;-71
2020/12/04 17:23:46;;;;;;;10.57;7.85;;;;;;;;;;6240074;28;20049;-71
2020/12/04 17:26:47;;;;;;;11.23;8.50;;;;;;;;;;6242875;28;20045;-71
2020/12/04 17:29:49;;;;;;;9.60;7.43;;;;;;;;;;6242976;28;20069;-72
2020/12/04 17:32:52;;;;;;;10.27;8.30;;;;;;;;;;6236634;28;20230;-72
2020/12/04 17:35:53;;;;;;;11.38;8.75;;;;;;;;;;6251791;28;20057;-72
2020/12/04 17:38:54;;;;;;;9.35;7.18;;;;;;;;;;6235422;28;20128;-72
2020/12/04 17:41:56;;;;;;;10.05;7.30;;;;;;;;;;6234957;28;20054;-72